sensor_id;sensor_type;location;lat;lon;timestamp;temperature;humidity
29687;DHT22;16599;47.078;15.536;2023-07-20T00:00:04;17.40;99.90
29687;DHT22;16599;47.078;15.536;2023-07-20T00:02:50;17.40;99.90
29687;DHT22;16599;47.078;15.536;2023-07-20T00:05:18;17.30;99.90
29687;DHT22;16599;47.078;15.536;2023-07-20T00:07:45;17.30;99.90
29687;DHT22;16599;47.078;15.536;2023-07-20T00:10:11;17.20;99.90
29687;DHT22;16599;47.078;15.536;2023-07-20T00:12:38;17.20;99.90
29687;DHT22;16599;47.078;15.536;2023-07-20T00:15:06;17.30;99.90
29687;DHT22;16599;47.078;15.536;2023-07-20T00:17:33;17.30;99.90
29687;DHT22;16599;47.078;15.536;2023-07-20T00:19:59;17.40;99.90
29687;DHT22;16599;47.078;15.536;2023-07-20T00:22:26;17.50;99.90
29687;DHT22;16599;47.078;15.536;2023-07-20T00:24:53;17.30;99.90
29687;DHT22;16599;47.078;15.536;2023-07-20T00:27:20;17.10;99.90
29687;DHT22;16599;47.078;15.536;2023-07-20T00:29:47;17.20;99.90
29687;DHT22;16599;47.078;15.536;2023-07-20T00:32:14;17.00;99.90
29687;DHT22;16599;47.078;15.536;2023-07-20T00:34:40;17.10;99.90
29687;DHT22;16599;47.078;15.536;2023-07-20T00:37:07;17.10;99.90
29687;DHT22;16599;47.078;15.536;2023-07-20T00:39:34;16.90;99.90
29687;DHT22;16599;47.078;15.536;2023-07-20T00:42:01;16.80;99.90
29687;DHT22;16599;47.078;15.536;2023-07-20T00:44:28;16.90;99.90
29687;DHT22;16599;47.078;15.536;2023-07-20T00:46:55;16.60;99.90
29687;DHT22;16599;47.078;15.536;2023-07-20T00:49:22;16.40;99.90
29687;DHT22;16599;47.078;15.536;2023-07-20T00:51:50;16.50;99.90
29687;DHT22;16599;47.078;15.536;2023-07-20T00:54:17;16.60;99.90
29687;DHT22;16599;47.078;15.536;2023-07-20T00:56:45;16.70;99.90
29687;DHT22;16599;47.078;15.536;2023-07-20T00:59:13;16.30;99.90
29687;DHT22;16599;47.078;15.536;2023-07-20T01:01:40;16.30;99.90
29687;DHT22;16599;47.078;15.536;2023-07-20T01:04:07;16.50;99.90
29687;DHT22;16599;47.078;15.536;2023-07-20T01:09:34;16.70;99.90
29687;DHT22;16599;47.078;15.536;2023-07-20T01:12:13;16.60;99.90
29687;DHT22;16599;47.078;15.536;2023-07-20T01:14:43;16.50;99.90
29687;DHT22;16599;47.078;15.536;2023-07-20T01:17:10;16.50;99.90
29687;DHT22;16599;47.078;15.536;2023-07-20T01:19:37;16.60;99.90
29687;DHT22;16599;47.078;15.536;2023-07-20T01:22:15;16.70;99.90
29687;DHT22;16599;47.078;15.536;2023-07-20T01:33:15;16.90;99.90
29687;DHT22;16599;47.078;15.536;2023-07-20T01:35:47;16.80;99.90
29687;DHT22;16599;47.078;15.536;2023-07-20T01:38:14;16.80;99.90
29687;DHT22;16599;47.078;15.536;2023-07-20T01:40:42;16.80;99.90
29687;DHT22;16599;47.078;15.536;2023-07-20T01:43:09;17.00;99.90
29687;DHT22;16599;47.078;15.536;2023-07-20T01:45:37;17.10;99.90
29687;DHT22;16599;47.078;15.536;2023-07-20T01:48:04;17.00;99.90
29687;DHT22;16599;47.078;15.536;2023-07-20T01:50:31;16.90;99.90
29687;DHT22;16599;47.078;15.536;2023-07-20T01:52:58;16.90;99.90
29687;DHT22;16599;47.078;15.536;2023-07-20T01:55:25;17.00;99.90
29687;DHT22;16599;47.078;15.536;2023-07-20T01:57:52;17.00;99.90
29687;DHT22;16599;47.078;15.536;2023-07-20T02:00:19;17.10;99.90
29687;DHT22;16599;47.078;15.536;2023-07-20T02:02:47;17.20;99.90
29687;DHT22;16599;47.078;15.536;2023-07-20T02:05:14;17.20;99.90
29687;DHT22;16599;47.078;15.536;2023-07-20T02:07:42;17.20;99.90
29687;DHT22;16599;47.078;15.536;2023-07-20T02:10:09;17.10;99.90
29687;DHT22;16599;47.078;15.536;2023-07-20T02:12:36;17.00;99.90
29687;DHT22;16599;47.078;15.536;2023-07-20T02:15:04;16.90;99.90
29687;DHT22;16599;47.078;15.536;2023-07-20T02:17:31;16.90;99.90
29687;DHT22;16599;47.078;15.536;2023-07-20T02:19:58;16.80;99.90
29687;DHT22;16599;47.078;15.536;2023-07-20T02:22:25;16.70;99.90
29687;DHT22;16599;47.078;15.536;2023-07-20T02:24:52;16.70;99.90
29687;DHT22;16599;47.078;15.536;2023-07-20T02:27:19;16.70;99.90
29687;DHT22;16599;47.078;15.536;2023-07-20T02:29:46;16.60;99.90
29687;DHT22;16599;47.078;15.536;2023-07-20T02:32:12;16.60;99.90
29687;DHT22;16599;47.078;15.536;2023-07-20T02:34:39;16.60;99.90
29687;DHT22;16599;47.078;15.536;2023-07-20T02:37:06;16.80;99.90
29687;DHT22;16599;47.078;15.536;2023-07-20T02:39:37;16.90;99.90
29687;DHT22;16599;47.078;15.536;2023-07-20T02:42:04;16.90;99.90
29687;DHT22;16599;47.078;15.536;2023-07-20T02:44:31;16.70;99.90
29687;DHT22;16599;47.078;15.536;2023-07-20T02:46:58;16.70;99.90
29687;DHT22;16599;47.078;15.536;2023-07-20T02:49:26;16.70;99.90
29687;DHT22;16599;47.078;15.536;2023-07-20T02:51:53;16.80;99.90
29687;DHT22;16599;47.078;15.536;2023-07-20T02:54:20;16.80;99.90
29687;DHT22;16599;47.078;15.536;2023-07-20T02:56:47;16.90;99.90
29687;DHT22;16599;47.078;15.536;2023-07-20T02:59:14;16.80;99.90
29687;DHT22;16599;47.078;15.536;2023-07-20T03:01:41;16.70;99.90
29687;DHT22;16599;47.078;15.536;2023-07-20T03:04:11;16.50;99.90
29687;DHT22;16599;47.078;15.536;2023-07-20T03:06:38;16.50;99.90
29687;DHT22;16599;47.078;15.536;2023-07-20T03:09:05;16.50;99.90
29687;DHT22;16599;47.078;15.536;2023-07-20T03:11:33;16.40;99.90
29687;DHT22;16599;47.078;15.536;2023-07-20T03:14:00;16.40;99.90
29687;DHT22;16599;47.078;15.536;2023-07-20T03:16:27;16.40;99.90
29687;DHT22;16599;47.078;15.536;2023-07-20T03:18:54;16.30;99.90
29687;DHT22;16599;47.078;15.536;2023-07-20T03:21:21;16.50;99.90
29687;DHT22;16599;47.078;15.536;2023-07-20T03:23:48;16.60;99.90
29687;DHT22;16599;47.078;15.536;2023-07-20T03:26:15;16.60;99.90
29687;DHT22;16599;47.078;15.536;2023-07-20T03:28:41;16.60;99.90
29687;DHT22;16599;47.078;15.536;2023-07-20T03:31:08;16.60;99.90
29687;DHT22;16599;47.078;15.536;2023-07-20T03:33:35;16.40;99.90
29687;DHT22;16599;47.078;15.536;2023-07-20T03:36:02;16.30;99.90
29687;DHT22;16599;47.078;15.536;2023-07-20T03:38:29;16.30;99.90
29687;DHT22;16599;47.078;15.536;2023-07-20T03:40:58;16.40;99.90
29687;DHT22;16599;47.078;15.536;2023-07-20T03:43:27;16.40;99.90
29687;DHT22;16599;47.078;15.536;2023-07-20T03:45:54;16.40;99.90
29687;DHT22;16599;47.078;15.536;2023-07-20T03:48:22;16.40;99.90
29687;DHT22;16599;47.078;15.536;2023-07-20T03:50:52;16.40;99.90
29687;DHT22;16599;47.078;15.536;2023-07-20T03:53:20;16.50;99.90
29687;DHT22;16599;47.078;15.536;2023-07-20T03:55:51;16.60;99.90
29687;DHT22;16599;47.078;15.536;2023-07-20T03:58:19;16.70;99.90
29687;DHT22;16599;47.078;15.536;2023-07-20T04:00:48;16.70;99.90
29687;DHT22;16599;47.078;15.536;2023-07-20T04:03:15;16.70;99.90
29687;DHT22;16599;47.078;15.536;2023-07-20T04:05:43;16.70;99.90
29687;DHT22;16599;47.078;15.536;2023-07-20T04:08:10;16.60;99.90
29687;DHT22;16599;47.078;15.536;2023-07-20T04:10:43;16.50;99.90
29687;DHT22;16599;47.078;15.536;2023-07-20T04:13:10;16.50;99.90
29687;DHT22;16599;47.078;15.536;2023-07-20T04:15:37;16.70;99.90
29687;DHT22;16599;47.078;15.536;2023-07-20T04:18:04;16.80;99.90
29687;DHT22;16599;47.078;15.536;2023-07-20T04:20:31;16.90;99.90
29687;DHT22;16599;47.078;15.536;2023-07-20T04:22:58;16.90;99.90
29687;DHT22;16599;47.078;15.536;2023-07-20T04:25:25;17.00;99.90
29687;DHT22;16599;47.078;15.536;2023-07-20T04:27:52;16.90;99.90
29687;DHT22;16599;47.078;15.536;2023-07-20T04:30:20;16.90;99.90
29687;DHT22;16599;47.078;15.536;2023-07-20T04:32:48;17.00;99.90
29687;DHT22;16599;47.078;15.536;2023-07-20T04:38:04;17.10;99.90
29687;DHT22;16599;47.078;15.536;2023-07-20T04:40:31;17.20;99.90
29687;DHT22;16599;47.078;15.536;2023-07-20T04:42:58;17.30;99.90
29687;DHT22;16599;47.078;15.536;2023-07-20T04:45:25;17.40;99.90
29687;DHT22;16599;47.078;15.536;2023-07-20T04:47:52;17.40;99.90
29687;DHT22;16599;47.078;15.536;2023-07-20T04:50:19;17.60;99.90
29687;DHT22;16599;47.078;15.536;2023-07-20T04:52:46;17.60;99.90
29687;DHT22;16599;47.078;15.536;2023-07-20T04:55:13;17.70;99.90
29687;DHT22;16599;47.078;15.536;2023-07-20T04:57:39;17.80;99.90
29687;DHT22;16599;47.078;15.536;2023-07-20T05:00:07;17.80;99.90
29687;DHT22;16599;47.078;15.536;2023-07-20T05:02:34;17.70;99.90
29687;DHT22;16599;47.078;15.536;2023-07-20T05:05:01;17.80;99.90
29687;DHT22;16599;47.078;15.536;2023-07-20T05:07:28;17.90;99.90
29687;DHT22;16599;47.078;15.536;2023-07-20T05:09:55;17.90;99.90
29687;DHT22;16599;47.078;15.536;2023-07-20T05:12:22;18.00;99.90
29687;DHT22;16599;47.078;15.536;2023-07-20T05:14:49;18.10;99.90
29687;DHT22;16599;47.078;15.536;2023-07-20T05:17:16;18.20;99.90
29687;DHT22;16599;47.078;15.536;2023-07-20T05:19:42;18.30;99.90
29687;DHT22;16599;47.078;15.536;2023-07-20T05:22:10;18.30;99.90
29687;DHT22;16599;47.078;15.536;2023-07-20T05:24:38;18.40;99.90
29687;DHT22;16599;47.078;15.536;2023-07-20T05:27:05;18.40;99.90
29687;DHT22;16599;47.078;15.536;2023-07-20T05:29:32;18.50;99.90
29687;DHT22;16599;47.078;15.536;2023-07-20T05:31:59;18.50;99.90
29687;DHT22;16599;47.078;15.536;2023-07-20T05:34:26;18.50;99.90
29687;DHT22;16599;47.078;15.536;2023-07-20T05:37:12;18.60;99.90
29687;DHT22;16599;47.078;15.536;2023-07-20T05:39:40;18.60;99.90
29687;DHT22;16599;47.078;15.536;2023-07-20T05:42:07;18.70;99.90
29687;DHT22;16599;47.078;15.536;2023-07-20T05:44:34;18.70;99.90
29687;DHT22;16599;47.078;15.536;2023-07-20T05:47:01;18.70;99.90
29687;DHT22;16599;47.078;15.536;2023-07-20T05:49:29;18.80;99.90
29687;DHT22;16599;47.078;15.536;2023-07-20T05:51:56;18.80;99.90
29687;DHT22;16599;47.078;15.536;2023-07-20T05:54:27;18.80;99.90
29687;DHT22;16599;47.078;15.536;2023-07-20T05:56:54;18.90;99.90
29687;DHT22;16599;47.078;15.536;2023-07-20T05:59:21;19.00;99.90
29687;DHT22;16599;47.078;15.536;2023-07-20T06:01:48;19.10;99.90
29687;DHT22;16599;47.078;15.536;2023-07-20T06:04:15;19.20;99.90
29687;DHT22;16599;47.078;15.536;2023-07-20T06:06:42;19.30;99.90
29687;DHT22;16599;47.078;15.536;2023-07-20T06:09:09;19.40;99.90
29687;DHT22;16599;47.078;15.536;2023-07-20T06:11:39;19.50;99.90
29687;DHT22;16599;47.078;15.536;2023-07-20T06:14:06;19.60;99.90
29687;DHT22;16599;47.078;15.536;2023-07-20T06:16:33;19.50;99.90
29687;DHT22;16599;47.078;15.536;2023-07-20T06:19:00;19.50;99.90
29687;DHT22;16599;47.078;15.536;2023-07-20T06:21:27;19.40;99.90
29687;DHT22;16599;47.078;15.536;2023-07-20T06:23:54;19.50;99.90
29687;DHT22;16599;47.078;15.536;2023-07-20T06:26:21;19.50;99.90
29687;DHT22;16599;47.078;15.536;2023-07-20T06:28:48;19.50;99.90
29687;DHT22;16599;47.078;15.536;2023-07-20T06:31:16;19.50;99.90
29687;DHT22;16599;47.078;15.536;2023-07-20T06:33:43;19.50;99.90
29687;DHT22;16599;47.078;15.536;2023-07-20T06:36:10;19.50;99.90
29687;DHT22;16599;47.078;15.536;2023-07-20T06:38:37;19.60;99.90
29687;DHT22;16599;47.078;15.536;2023-07-20T06:41:04;19.70;99.90
29687;DHT22;16599;47.078;15.536;2023-07-20T06:43:34;19.80;99.90
29687;DHT22;16599;47.078;15.536;2023-07-20T06:46:04;19.80;99.90
29687;DHT22;16599;47.078;15.536;2023-07-20T06:48:31;19.90;99.90
29687;DHT22;16599;47.078;15.536;2023-07-20T06:50:58;19.90;99.90
29687;DHT22;16599;47.078;15.536;2023-07-20T06:53:25;19.90;99.90
29687;DHT22;16599;47.078;15.536;2023-07-20T06:55:52;19.90;99.90
29687;DHT22;16599;47.078;15.536;2023-07-20T06:58:19;20.00;99.90
29687;DHT22;16599;47.078;15.536;2023-07-20T07:00:46;20.00;99.90
29687;DHT22;16599;47.078;15.536;2023-07-20T07:03:13;20.00;99.90
29687;DHT22;16599;47.078;15.536;2023-07-20T07:05:40;20.00;99.90
29687;DHT22;16599;47.078;15.536;2023-07-20T07:08:08;20.10;99.90
29687;DHT22;16599;47.078;15.536;2023-07-20T07:10:36;20.00;99.90
29687;DHT22;16599;47.078;15.536;2023-07-20T07:13:03;20.00;99.90
29687;DHT22;16599;47.078;15.536;2023-07-20T07:15:31;20.00;99.90
29687;DHT22;16599;47.078;15.536;2023-07-20T07:17:59;20.00;99.90
29687;DHT22;16599;47.078;15.536;2023-07-20T07:20:26;20.00;99.90
29687;DHT22;16599;47.078;15.536;2023-07-20T07:22:55;20.00;99.90
29687;DHT22;16599;47.078;15.536;2023-07-20T07:25:23;20.00;99.90
29687;DHT22;16599;47.078;15.536;2023-07-20T07:27:52;20.10;99.90
29687;DHT22;16599;47.078;15.536;2023-07-20T07:30:19;20.20;99.90
29687;DHT22;16599;47.078;15.536;2023-07-20T07:32:46;20.30;99.90
29687;DHT22;16599;47.078;15.536;2023-07-20T07:35:13;20.40;99.90
29687;DHT22;16599;47.078;15.536;2023-07-20T07:37:40;20.50;99.90
29687;DHT22;16599;47.078;15.536;2023-07-20T07:40:27;20.60;99.90
29687;DHT22;16599;47.078;15.536;2023-07-20T07:42:54;20.70;99.90
29687;DHT22;16599;47.078;15.536;2023-07-20T07:45:21;20.80;99.90
29687;DHT22;16599;47.078;15.536;2023-07-20T07:47:48;20.90;99.90
29687;DHT22;16599;47.078;15.536;2023-07-20T07:50:15;20.90;99.90
29687;DHT22;16599;47.078;15.536;2023-07-20T07:52:42;20.90;99.90
29687;DHT22;16599;47.078;15.536;2023-07-20T07:55:09;20.90;99.90
29687;DHT22;16599;47.078;15.536;2023-07-20T07:57:36;20.80;99.90
29687;DHT22;16599;47.078;15.536;2023-07-20T08:00:03;20.80;99.90
29687;DHT22;16599;47.078;15.536;2023-07-20T08:02:30;20.90;99.90
29687;DHT22;16599;47.078;15.536;2023-07-20T08:04:58;21.10;99.90
29687;DHT22;16599;47.078;15.536;2023-07-20T08:07:25;21.20;99.90
29687;DHT22;16599;47.078;15.536;2023-07-20T08:09:52;21.20;99.90
29687;DHT22;16599;47.078;15.536;2023-07-20T08:12:19;21.20;99.90
29687;DHT22;16599;47.078;15.536;2023-07-20T08:14:46;21.40;99.90
29687;DHT22;16599;47.078;15.536;2023-07-20T08:17:13;21.50;99.80
29687;DHT22;16599;47.078;15.536;2023-07-20T08:19:40;21.80;98.50
29687;DHT22;16599;47.078;15.536;2023-07-20T08:22:08;22.20;95.90
29687;DHT22;16599;47.078;15.536;2023-07-20T08:24:39;22.40;96.10
29687;DHT22;16599;47.078;15.536;2023-07-20T08:27:07;22.70;92.70
29687;DHT22;16599;47.078;15.536;2023-07-20T08:29:38;23.10;82.80
29687;DHT22;16599;47.078;15.536;2023-07-20T08:32:06;23.30;87.70
29687;DHT22;16599;47.078;15.536;2023-07-20T08:34:33;23.40;81.60
29687;DHT22;16599;47.078;15.536;2023-07-20T08:37:00;23.60;87.10
29687;DHT22;16599;47.078;15.536;2023-07-20T08:39:26;23.90;80.80
29687;DHT22;16599;47.078;15.536;2023-07-20T08:41:55;24.00;80.50
29687;DHT22;16599;47.078;15.536;2023-07-20T08:44:22;24.00;77.00
29687;DHT22;16599;47.078;15.536;2023-07-20T08:46:51;24.00;80.20
29687;DHT22;16599;47.078;15.536;2023-07-20T08:49:19;24.00;76.70
29687;DHT22;16599;47.078;15.536;2023-07-20T08:51:46;24.10;86.60
29687;DHT22;16599;47.078;15.536;2023-07-20T08:54:15;24.10;83.30
29687;DHT22;16599;47.078;15.536;2023-07-20T08:56:45;24.50;72.40
29687;DHT22;16599;47.078;15.536;2023-07-20T08:59:16;24.60;82.20
29687;DHT22;16599;47.078;15.536;2023-07-20T09:01:44;24.50;85.20
29687;DHT22;16599;47.078;15.536;2023-07-20T09:04:12;24.30;87.20
29687;DHT22;16599;47.078;15.536;2023-07-20T09:06:40;24.30;90.50
29687;DHT22;16599;47.078;15.536;2023-07-20T09:09:11;24.40;89.70
29687;DHT22;16599;47.078;15.536;2023-07-20T09:11:38;24.40;89.60
29687;DHT22;16599;47.078;15.536;2023-07-20T09:14:09;24.50;87.60
29687;DHT22;16599;47.078;15.536;2023-07-20T09:16:55;24.60;89.70
29687;DHT22;16599;47.078;15.536;2023-07-20T09:19:22;24.80;90.10
29687;DHT22;16599;47.078;15.536;2023-07-20T09:21:50;24.90;87.50
29687;DHT22;16599;47.078;15.536;2023-07-20T09:24:18;24.90;85.70
29687;DHT22;16599;47.078;15.536;2023-07-20T09:26:46;24.80;85.40
29687;DHT22;16599;47.078;15.536;2023-07-20T09:29:18;24.90;82.40
29687;DHT22;16599;47.078;15.536;2023-07-20T09:32:04;24.90;83.20
29687;DHT22;16599;47.078;15.536;2023-07-20T09:34:32;24.90;84.70
29687;DHT22;16599;47.078;15.536;2023-07-20T09:37:02;25.10;86.60
29687;DHT22;16599;47.078;15.536;2023-07-20T09:39:30;25.20;81.10
29687;DHT22;16599;47.078;15.536;2023-07-20T09:42:00;25.30;78.20
29687;DHT22;16599;47.078;15.536;2023-07-20T09:44:34;25.20;74.80
29687;DHT22;16599;47.078;15.536;2023-07-20T09:47:04;25.10;75.10
29687;DHT22;16599;47.078;15.536;2023-07-20T09:49:32;25.20;73.10
29687;DHT22;16599;47.078;15.536;2023-07-20T09:52:19;25.30;72.40
29687;DHT22;16599;47.078;15.536;2023-07-20T09:54:50;25.50;74.30
29687;DHT22;16599;47.078;15.536;2023-07-20T09:57:18;25.70;74.90
29687;DHT22;16599;47.078;15.536;2023-07-20T09:59:45;25.80;75.90
29687;DHT22;16599;47.078;15.536;2023-07-20T10:02:33;26.00;77.00
29687;DHT22;16599;47.078;15.536;2023-07-20T10:05:02;26.10;77.60
29687;DHT22;16599;47.078;15.536;2023-07-20T10:07:36;26.30;69.30
29687;DHT22;16599;47.078;15.536;2023-07-20T10:10:07;26.00;62.80
29687;DHT22;16599;47.078;15.536;2023-07-20T10:12:39;25.90;74.30
29687;DHT22;16599;47.078;15.536;2023-07-20T10:20:19;26.30;77.00
29687;DHT22;16599;47.078;15.536;2023-07-20T10:22:49;26.20;73.70
29687;DHT22;16599;47.078;15.536;2023-07-20T10:25:18;26.40;74.10
29687;DHT22;16599;47.078;15.536;2023-07-20T10:27:47;26.50;74.80
29687;DHT22;16599;47.078;15.536;2023-07-20T10:30:15;26.60;74.80
29687;DHT22;16599;47.078;15.536;2023-07-20T10:32:44;26.40;78.90
29687;DHT22;16599;47.078;15.536;2023-07-20T10:35:13;26.20;77.50
29687;DHT22;16599;47.078;15.536;2023-07-20T10:37:54;25.90;80.00
29687;DHT22;16599;47.078;15.536;2023-07-20T10:40:36;25.60;80.10
29687;DHT22;16599;47.078;15.536;2023-07-20T10:43:06;25.40;83.30
29687;DHT22;16599;47.078;15.536;2023-07-20T10:45:42;25.30;81.50
29687;DHT22;16599;47.078;15.536;2023-07-20T10:48:16;25.40;84.50
29687;DHT22;16599;47.078;15.536;2023-07-20T10:50:44;25.20;83.70
29687;DHT22;16599;47.078;15.536;2023-07-20T10:53:18;25.40;83.80
29687;DHT22;16599;47.078;15.536;2023-07-20T10:55:45;25.40;79.10
29687;DHT22;16599;47.078;15.536;2023-07-20T10:58:17;25.30;79.60
29687;DHT22;16599;47.078;15.536;2023-07-20T11:00:57;25.30;81.70
29687;DHT22;16599;47.078;15.536;2023-07-20T11:03:31;25.40;82.60
29687;DHT22;16599;47.078;15.536;2023-07-20T11:08:55;25.40;82.60
29687;DHT22;16599;47.078;15.536;2023-07-20T11:14:01;25.50;81.00
29687;DHT22;16599;47.078;15.536;2023-07-20T11:16:36;25.90;85.50
29687;DHT22;16599;47.078;15.536;2023-07-20T11:19:04;25.90;78.50
29687;DHT22;16599;47.078;15.536;2023-07-20T11:21:38;25.70;78.90
29687;DHT22;16599;47.078;15.536;2023-07-20T11:24:26;25.80;79.80
29687;DHT22;16599;47.078;15.536;2023-07-20T11:26:54;25.70;79.40
29687;DHT22;16599;47.078;15.536;2023-07-20T11:29:22;25.40;78.90
29687;DHT22;16599;47.078;15.536;2023-07-20T11:31:58;25.30;80.60
29687;DHT22;16599;47.078;15.536;2023-07-20T11:34:30;25.40;81.20
29687;DHT22;16599;47.078;15.536;2023-07-20T11:36:57;25.50;82.60
29687;DHT22;16599;47.078;15.536;2023-07-20T11:39:29;25.50;79.80
29687;DHT22;16599;47.078;15.536;2023-07-20T11:41:57;25.50;80.90
29687;DHT22;16599;47.078;15.536;2023-07-20T11:44:26;25.80;83.30
29687;DHT22;16599;47.078;15.536;2023-07-20T11:47:08;25.90;80.50
29687;DHT22;16599;47.078;15.536;2023-07-20T11:49:44;25.80;77.10
29687;DHT22;16599;47.078;15.536;2023-07-20T11:52:16;25.70;79.60
29687;DHT22;16599;47.078;15.536;2023-07-20T11:54:44;25.70;77.70
29687;DHT22;16599;47.078;15.536;2023-07-20T11:57:18;25.70;76.50
29687;DHT22;16599;47.078;15.536;2023-07-20T12:00:00;25.60;74.80
29687;DHT22;16599;47.078;15.536;2023-07-20T12:02:28;25.50;73.00
29687;DHT22;16599;47.078;15.536;2023-07-20T12:04:56;25.60;71.60
29687;DHT22;16599;47.078;15.536;2023-07-20T12:07:27;25.60;71.30
29687;DHT22;16599;47.078;15.536;2023-07-20T12:10:09;25.50;74.30
29687;DHT22;16599;47.078;15.536;2023-07-20T12:12:41;25.30;77.00
29687;DHT22;16599;47.078;15.536;2023-07-20T12:17:45;24.00;80.90
29687;DHT22;16599;47.078;15.536;2023-07-20T12:20:12;23.40;84.10
29687;DHT22;16599;47.078;15.536;2023-07-20T12:22:40;23.20;83.30
29687;DHT22;16599;47.078;15.536;2023-07-20T12:25:08;22.60;84.30
29687;DHT22;16599;47.078;15.536;2023-07-20T12:27:36;22.50;86.50
29687;DHT22;16599;47.078;15.536;2023-07-20T12:30:05;22.40;84.20
29687;DHT22;16599;47.078;15.536;2023-07-20T12:32:34;22.30;85.90
29687;DHT22;16599;47.078;15.536;2023-07-20T12:35:01;22.30;85.00
29687;DHT22;16599;47.078;15.536;2023-07-20T12:37:29;22.00;87.00
29687;DHT22;16599;47.078;15.536;2023-07-20T12:39:56;22.10;87.50
29687;DHT22;16599;47.078;15.536;2023-07-20T12:42:23;22.00;86.90
29687;DHT22;16599;47.078;15.536;2023-07-20T12:44:49;21.90;87.20
29687;DHT22;16599;47.078;15.536;2023-07-20T12:47:17;21.90;88.20
29687;DHT22;16599;47.078;15.536;2023-07-20T12:49:45;21.90;89.10
29687;DHT22;16599;47.078;15.536;2023-07-20T12:52:13;21.90;90.50
29687;DHT22;16599;47.078;15.536;2023-07-20T12:54:40;21.70;91.00
29687;DHT22;16599;47.078;15.536;2023-07-20T12:57:07;21.60;90.60
29687;DHT22;16599;47.078;15.536;2023-07-20T12:59:37;21.50;91.10
29687;DHT22;16599;47.078;15.536;2023-07-20T13:02:04;21.20;91.70
29687;DHT22;16599;47.078;15.536;2023-07-20T13:04:32;20.70;91.10
29687;DHT22;16599;47.078;15.536;2023-07-20T13:06:58;20.60;93.50
29687;DHT22;16599;47.078;15.536;2023-07-20T13:09:26;20.40;95.30
29687;DHT22;16599;47.078;15.536;2023-07-20T13:11:53;20.30;95.20
29687;DHT22;16599;47.078;15.536;2023-07-20T13:14:20;19.90;96.90
29687;DHT22;16599;47.078;15.536;2023-07-20T13:16:47;19.70;98.40
29687;DHT22;16599;47.078;15.536;2023-07-20T13:19:14;19.50;97.80
29687;DHT22;16599;47.078;15.536;2023-07-20T13:21:41;19.30;99.00
29687;DHT22;16599;47.078;15.536;2023-07-20T13:24:08;19.30;99.90
29687;DHT22;16599;47.078;15.536;2023-07-20T13:26:35;19.00;99.90
29687;DHT22;16599;47.078;15.536;2023-07-20T13:29:02;19.00;99.90
29687;DHT22;16599;47.078;15.536;2023-07-20T13:31:29;19.00;99.90
29687;DHT22;16599;47.078;15.536;2023-07-20T13:34:00;19.10;99.90
29687;DHT22;16599;47.078;15.536;2023-07-20T13:36:28;19.40;99.90
29687;DHT22;16599;47.078;15.536;2023-07-20T13:38:56;19.70;99.90
29687;DHT22;16599;47.078;15.536;2023-07-20T13:41:23;20.10;99.90
29687;DHT22;16599;47.078;15.536;2023-07-20T13:43:50;20.80;99.90
29687;DHT22;16599;47.078;15.536;2023-07-20T13:46:17;20.60;99.90
29687;DHT22;16599;47.078;15.536;2023-07-20T13:49:04;20.40;99.90
29687;DHT22;16599;47.078;15.536;2023-07-20T13:51:39;20.20;99.90
29687;DHT22;16599;47.078;15.536;2023-07-20T13:54:07;20.10;99.90
29687;DHT22;16599;47.078;15.536;2023-07-20T13:56:37;20.40;99.90
29687;DHT22;16599;47.078;15.536;2023-07-20T13:59:04;20.80;99.90
29687;DHT22;16599;47.078;15.536;2023-07-20T14:01:32;21.00;99.90
29687;DHT22;16599;47.078;15.536;2023-07-20T14:04:04;21.20;99.90
29687;DHT22;16599;47.078;15.536;2023-07-20T14:06:32;21.90;99.90
29687;DHT22;16599;47.078;15.536;2023-07-20T14:08:59;21.70;99.90
29687;DHT22;16599;47.078;15.536;2023-07-20T14:11:27;21.60;99.90
29687;DHT22;16599;47.078;15.536;2023-07-20T14:13:57;21.80;99.90
29687;DHT22;16599;47.078;15.536;2023-07-20T14:16:25;22.30;99.90
29687;DHT22;16599;47.078;15.536;2023-07-20T14:18:53;22.00;99.90
29687;DHT22;16599;47.078;15.536;2023-07-20T14:21:21;22.20;99.90
29687;DHT22;16599;47.078;15.536;2023-07-20T14:23:50;22.40;99.90
29687;DHT22;16599;47.078;15.536;2023-07-20T14:26:20;22.80;99.90
29687;DHT22;16599;47.078;15.536;2023-07-20T14:28:48;22.40;98.10
29687;DHT22;16599;47.078;15.536;2023-07-20T14:31:15;22.40;99.80
29687;DHT22;16599;47.078;15.536;2023-07-20T14:33:43;22.50;98.30
29687;DHT22;16599;47.078;15.536;2023-07-20T14:36:10;22.70;97.60
29687;DHT22;16599;47.078;15.536;2023-07-20T14:38:37;23.10;96.60
29687;DHT22;16599;47.078;15.536;2023-07-20T14:41:04;23.40;94.20
29687;DHT22;16599;47.078;15.536;2023-07-20T14:43:33;23.50;93.30
29687;DHT22;16599;47.078;15.536;2023-07-20T14:46:00;23.60;94.40
29687;DHT22;16599;47.078;15.536;2023-07-20T14:48:27;23.50;94.70
29687;DHT22;16599;47.078;15.536;2023-07-20T14:50:54;23.70;95.50
29687;DHT22;16599;47.078;15.536;2023-07-20T14:53:30;24.10;93.60
29687;DHT22;16599;47.078;15.536;2023-07-20T14:56:20;24.50;93.60
29687;DHT22;16599;47.078;15.536;2023-07-20T14:58:47;24.60;94.20
29687;DHT22;16599;47.078;15.536;2023-07-20T15:01:14;24.40;92.10
29687;DHT22;16599;47.078;15.536;2023-07-20T15:03:41;24.50;91.80
29687;DHT22;16599;47.078;15.536;2023-07-20T15:06:11;24.40;92.20
29687;DHT22;16599;47.078;15.536;2023-07-20T15:08:38;23.90;90.80
29687;DHT22;16599;47.078;15.536;2023-07-20T15:11:05;23.80;92.60
29687;DHT22;16599;47.078;15.536;2023-07-20T15:13:32;23.70;94.60
29687;DHT22;16599;47.078;15.536;2023-07-20T15:15:58;23.60;92.70
29687;DHT22;16599;47.078;15.536;2023-07-20T15:18:25;23.40;91.80
29687;DHT22;16599;47.078;15.536;2023-07-20T15:21:12;23.40;91.80
29687;DHT22;16599;47.078;15.536;2023-07-20T15:23:39;23.50;91.60
29687;DHT22;16599;47.078;15.536;2023-07-20T15:26:06;23.40;91.90
29687;DHT22;16599;47.078;15.536;2023-07-20T15:28:33;23.80;94.40
29687;DHT22;16599;47.078;15.536;2023-07-20T15:31:01;24.30;94.00
29687;DHT22;16599;47.078;15.536;2023-07-20T15:33:30;24.20;91.20
29687;DHT22;16599;47.078;15.536;2023-07-20T15:35:57;23.80;93.00
29687;DHT22;16599;47.078;15.536;2023-07-20T15:38:24;23.60;92.40
29687;DHT22;16599;47.078;15.536;2023-07-20T15:40:51;23.30;92.90
29687;DHT22;16599;47.078;15.536;2023-07-20T15:43:18;23.30;93.30
29687;DHT22;16599;47.078;15.536;2023-07-20T15:45:48;23.50;93.40
29687;DHT22;16599;47.078;15.536;2023-07-20T15:48:18;23.70;96.30
29687;DHT22;16599;47.078;15.536;2023-07-20T15:50:48;23.70;98.20